sensor_id;sensor_type;location;lat;lon;timestamp;P1;durP1;ratioP1;P2;durP2;ratioP2
64199;SDS011;50516;52.272;5.136;2023-02-28T00:00:30;11.68;;;3.10;;
64199;SDS011;50516;52.272;5.136;2023-02-28T00:02:56;14.65;;;4.35;;
64199;SDS011;50516;52.272;5.136;2023-02-28T00:05:22;6.97;;;3.10;;
64199;SDS011;50516;52.272;5.136;2023-02-28T00:07:48;5.90;;;2.75;;
64199;SDS011;50516;52.272;5.136;2023-02-28T00:10:16;5.68;;;2.83;;
64199;SDS011;50516;52.272;5.136;2023-02-28T00:12:47;7.50;;;2.75;;
64199;SDS011;50516;52.272;5.136;2023-02-28T00:15:14;6.53;;;2.67;;
64199;SDS011;50516;52.272;5.136;2023-02-28T00:17:39;7.30;;;3.40;;
64199;SDS011;50516;52.272;5.136;2023-02-28T00:20:05;5.40;;;2.70;;
64199;SDS011;50516;52.272;5.136;2023-02-28T00:22:35;9.40;;;3.10;;
64199;SDS011;50516;52.272;5.136;2023-02-28T00:25:01;9.07;;;2.70;;
64199;SDS011;50516;52.272;5.136;2023-02-28T00:27:28;9.70;;;3.20;;
64199;SDS011;50516;52.272;5.136;2023-02-28T00:29:54;8.40;;;3.72;;
64199;SDS011;50516;52.272;5.136;2023-02-28T00:32:19;7.20;;;3.38;;
64199;SDS011;50516;52.272;5.136;2023-02-28T00:34:45;6.88;;;3.03;;
64199;SDS011;50516;52.272;5.136;2023-02-28T00:37:10;7.53;;;2.75;;
64199;SDS011;50516;52.272;5.136;2023-02-28T00:39:39;4.40;;;2.53;;
64199;SDS011;50516;52.272;5.136;2023-02-28T00:42:05;6.57;;;3.08;;
64199;SDS011;50516;52.272;5.136;2023-02-28T00:44:32;5.55;;;2.83;;
64199;SDS011;50516;52.272;5.136;2023-02-28T00:46:57;5.60;;;2.65;;
64199;SDS011;50516;52.272;5.136;2023-02-28T00:49:23;8.13;;;2.67;;
64199;SDS011;50516;52.272;5.136;2023-02-28T00:51:50;7.75;;;3.55;;
64199;SDS011;50516;52.272;5.136;2023-02-28T00:54:15;4.90;;;3.20;;
64199;SDS011;50516;52.272;5.136;2023-02-28T00:56:41;8.35;;;3.60;;
64199;SDS011;50516;52.272;5.136;2023-02-28T00:59:06;6.10;;;2.75;;
64199;SDS011;50516;52.272;5.136;2023-02-28T01:01:32;5.45;;;2.65;;
64199;SDS011;50516;52.272;5.136;2023-02-28T01:03:57;5.53;;;2.83;;
64199;SDS011;50516;52.272;5.136;2023-02-28T01:06:23;9.85;;;3.88;;
64199;SDS011;50516;52.272;5.136;2023-02-28T01:08:48;11.32;;;3.15;;
64199;SDS011;50516;52.272;5.136;2023-02-28T01:11:15;7.05;;;2.92;;
64199;SDS011;50516;52.272;5.136;2023-02-28T01:13:41;4.38;;;2.80;;
64199;SDS011;50516;52.272;5.136;2023-02-28T01:16:07;6.63;;;3.17;;
64199;SDS011;50516;52.272;5.136;2023-02-28T01:18:33;8.77;;;3.17;;
64199;SDS011;50516;52.272;5.136;2023-02-28T01:21:02;8.48;;;3.15;;
64199;SDS011;50516;52.272;5.136;2023-02-28T01:23:28;7.07;;;2.95;;
64199;SDS011;50516;52.272;5.136;2023-02-28T01:25:54;12.43;;;3.15;;
64199;SDS011;50516;52.272;5.136;2023-02-28T01:28:20;8.43;;;4.07;;
64199;SDS011;50516;52.272;5.136;2023-02-28T01:30:49;4.63;;;2.97;;
64199;SDS011;50516;52.272;5.136;2023-02-28T01:33:15;6.65;;;3.08;;
64199;SDS011;50516;52.272;5.136;2023-02-28T01:35:40;6.40;;;2.70;;
64199;SDS011;50516;52.272;5.136;2023-02-28T01:38:06;8.35;;;2.88;;
64199;SDS011;50516;52.272;5.136;2023-02-28T01:40:32;5.95;;;3.15;;
64199;SDS011;50516;52.272;5.136;2023-02-28T01:42:57;6.28;;;3.08;;
64199;SDS011;50516;52.272;5.136;2023-02-28T01:45:27;4.93;;;2.92;;
64199;SDS011;50516;52.272;5.136;2023-02-28T01:47:58;5.82;;;3.35;;
64199;SDS011;50516;52.272;5.136;2023-02-28T01:50:29;8.27;;;3.20;;
64199;SDS011;50516;52.272;5.136;2023-02-28T01:53:00;6.65;;;3.33;;
64199;SDS011;50516;52.272;5.136;2023-02-28T01:55:29;6.22;;;3.30;;
64199;SDS011;50516;52.272;5.136;2023-02-28T01:57:57;6.07;;;3.08;;
64199;SDS011;50516;52.272;5.136;2023-02-28T02:00:26;14.27;;;4.40;;
64199;SDS011;50516;52.272;5.136;2023-02-28T02:02:54;5.05;;;3.30;;
64199;SDS011;50516;52.272;5.136;2023-02-28T02:05:28;6.55;;;2.80;;
64199;SDS011;50516;52.272;5.136;2023-02-28T02:07:56;8.15;;;3.60;;
64199;SDS011;50516;52.272;5.136;2023-02-28T02:10:30;8.43;;;3.35;;
64199;SDS011;50516;52.272;5.136;2023-02-28T02:13:05;9.30;;;3.83;;
64199;SDS011;50516;52.272;5.136;2023-02-28T02:20:51;7.45;;;3.35;;
64199;SDS011;50516;52.272;5.136;2023-02-28T02:29:50;8.02;;;3.13;;
64199;SDS011;50516;52.272;5.136;2023-02-28T02:37:58;4.85;;;3.10;;
64199;SDS011;50516;52.272;5.136;2023-02-28T02:40:33;7.20;;;3.38;;
64199;SDS011;50516;52.272;5.136;2023-02-28T02:43:09;6.28;;;4.10;;
64199;SDS011;50516;52.272;5.136;2023-02-28T02:45:44;6.30;;;3.17;;
64199;SDS011;50516;52.272;5.136;2023-02-28T02:48:13;8.35;;;3.22;;
64199;SDS011;50516;52.272;5.136;2023-02-28T02:50:44;8.02;;;3.40;;
64199;SDS011;50516;52.272;5.136;2023-02-28T02:53:14;8.30;;;3.50;;
64199;SDS011;50516;52.272;5.136;2023-02-28T02:55:44;7.25;;;3.53;;
64199;SDS011;50516;52.272;5.136;2023-02-28T02:58:18;9.02;;;4.55;;
64199;SDS011;50516;52.272;5.136;2023-02-28T03:00:53;7.18;;;3.72;;
64199;SDS011;50516;52.272;5.136;2023-02-28T03:03:23;7.43;;;3.58;;
64199;SDS011;50516;52.272;5.136;2023-02-28T03:05:54;8.52;;;3.47;;
64199;SDS011;50516;52.272;5.136;2023-02-28T03:08:21;12.20;;;4.25;;
64199;SDS011;50516;52.272;5.136;2023-02-28T03:10:51;8.63;;;3.30;;
64199;SDS011;50516;52.272;5.136;2023-02-28T03:13:36;7.07;;;4.00;;
64199;SDS011;50516;52.272;5.136;2023-02-28T03:21:27;6.60;;;3.40;;
64199;SDS011;50516;52.272;5.136;2023-02-28T03:24:04;6.05;;;3.70;;
64199;SDS011;50516;52.272;5.136;2023-02-28T03:26:37;7.55;;;3.80;;
64199;SDS011;50516;52.272;5.136;2023-02-28T03:29:22;11.65;;;4.32;;
64199;SDS011;50516;52.272;5.136;2023-02-28T03:31:54;9.40;;;3.70;;
64199;SDS011;50516;52.272;5.136;2023-02-28T03:36:55;12.07;;;4.53;;
64199;SDS011;50516;52.272;5.136;2023-02-28T03:39:28;8.10;;;4.70;;
64199;SDS011;50516;52.272;5.136;2023-02-28T03:41:59;8.68;;;3.63;;
64199;SDS011;50516;52.272;5.136;2023-02-28T03:45:02;7.40;;;3.78;;
64199;SDS011;50516;52.272;5.136;2023-02-28T03:47:24;8.63;;;4.25;;
64199;SDS011;50516;52.272;5.136;2023-02-28T03:52:34;8.15;;;4.18;;
64199;SDS011;50516;52.272;5.136;2023-02-28T03:55:05;10.43;;;4.18;;
64199;SDS011;50516;52.272;5.136;2023-02-28T03:57:43;7.65;;;4.18;;
64199;SDS011;50516;52.272;5.136;2023-02-28T04:00:20;9.40;;;4.40;;
64199;SDS011;50516;52.272;5.136;2023-02-28T04:02:53;7.85;;;3.80;;
64199;SDS011;50516;52.272;5.136;2023-02-28T04:05:19;8.65;;;4.65;;
64199;SDS011;50516;52.272;5.136;2023-02-28T04:07:46;7.20;;;3.80;;
64199;SDS011;50516;52.272;5.136;2023-02-28T04:10:12;12.98;;;4.70;;
64199;SDS011;50516;52.272;5.136;2023-02-28T04:12:38;7.07;;;4.00;;
64199;SDS011;50516;52.272;5.136;2023-02-28T04:15:03;6.22;;;4.05;;
64199;SDS011;50516;52.272;5.136;2023-02-28T04:17:29;12.85;;;5.18;;
64199;SDS011;50516;52.272;5.136;2023-02-28T04:19:55;9.00;;;4.70;;
64199;SDS011;50516;52.272;5.136;2023-02-28T04:22:22;10.27;;;5.85;;
64199;SDS011;50516;52.272;5.136;2023-02-28T04:24:47;11.88;;;4.40;;
64199;SDS011;50516;52.272;5.136;2023-02-28T04:27:12;13.00;;;5.28;;
64199;SDS011;50516;52.272;5.136;2023-02-28T04:29:40;7.97;;;4.13;;
64199;SDS011;50516;52.272;5.136;2023-02-28T04:32:09;9.40;;;4.43;;
64199;SDS011;50516;52.272;5.136;2023-02-28T04:34:35;8.35;;;4.97;;
64199;SDS011;50516;52.272;5.136;2023-02-28T04:37:00;10.30;;;4.50;;
64199;SDS011;50516;52.272;5.136;2023-02-28T04:39:26;6.55;;;4.30;;
64199;SDS011;50516;52.272;5.136;2023-02-28T04:41:51;8.10;;;4.60;;
64199;SDS011;50516;52.272;5.136;2023-02-28T04:44:16;6.68;;;4.38;;
64199;SDS011;50516;52.272;5.136;2023-02-28T04:46:42;9.93;;;4.75;;
64199;SDS011;50516;52.272;5.136;2023-02-28T04:49:08;14.02;;;6.25;;
64199;SDS011;50516;52.272;5.136;2023-02-28T04:51:36;11.13;;;5.90;;
64199;SDS011;50516;52.272;5.136;2023-02-28T04:54:02;12.52;;;5.78;;
64199;SDS011;50516;52.272;5.136;2023-02-28T04:56:27;11.65;;;4.95;;
64199;SDS011;50516;52.272;5.136;2023-02-28T04:58:52;13.55;;;5.05;;
64199;SDS011;50516;52.272;5.136;2023-02-28T05:01:22;16.00;;;5.57;;
64199;SDS011;50516;52.272;5.136;2023-02-28T05:03:54;9.87;;;6.03;;
64199;SDS011;50516;52.272;5.136;2023-02-28T05:06:21;12.75;;;5.70;;
64199;SDS011;50516;52.272;5.136;2023-02-28T05:08:51;12.23;;;6.90;;
64199;SDS011;50516;52.272;5.136;2023-02-28T05:11:22;10.55;;;6.45;;
64199;SDS011;50516;52.272;5.136;2023-02-28T05:13:49;8.75;;;5.82;;
64199;SDS011;50516;52.272;5.136;2023-02-28T05:16:16;15.95;;;7.15;;
64199;SDS011;50516;52.272;5.136;2023-02-28T05:18:42;11.18;;;6.60;;
64199;SDS011;50516;52.272;5.136;2023-02-28T05:23:53;12.32;;;7.22;;
64199;SDS011;50516;52.272;5.136;2023-02-28T05:26:20;11.73;;;8.27;;
64199;SDS011;50516;52.272;5.136;2023-02-28T05:28:45;12.63;;;8.05;;
64199;SDS011;50516;52.272;5.136;2023-02-28T05:31:11;12.95;;;8.43;;
64199;SDS011;50516;52.272;5.136;2023-02-28T05:33:37;12.20;;;8.55;;
64199;SDS011;50516;52.272;5.136;2023-02-28T05:36:02;15.75;;;8.10;;
64199;SDS011;50516;52.272;5.136;2023-02-28T05:38:28;12.82;;;8.35;;
64199;SDS011;50516;52.272;5.136;2023-02-28T05:40:54;18.90;;;9.52;;
64199;SDS011;50516;52.272;5.136;2023-02-28T05:43:19;14.05;;;8.60;;
64199;SDS011;50516;52.272;5.136;2023-02-28T05:45:44;13.43;;;8.30;;
64199;SDS011;50516;52.272;5.136;2023-02-28T05:48:10;15.43;;;8.75;;
64199;SDS011;50516;52.272;5.136;2023-02-28T05:50:36;14.85;;;8.27;;
64199;SDS011;50516;52.272;5.136;2023-02-28T05:53:02;12.25;;;8.30;;
64199;SDS011;50516;52.272;5.136;2023-02-28T05:55:27;10.20;;;6.70;;
64199;SDS011;50516;52.272;5.136;2023-02-28T05:57:53;10.13;;;6.90;;
64199;SDS011;50516;52.272;5.136;2023-02-28T06:00:18;10.68;;;6.50;;
64199;SDS011;50516;52.272;5.136;2023-02-28T06:02:44;11.80;;;6.13;;
64199;SDS011;50516;52.272;5.136;2023-02-28T06:05:16;5.82;;;4.47;;
64199;SDS011;50516;52.272;5.136;2023-02-28T06:07:42;7.25;;;4.22;;
64199;SDS011;50516;52.272;5.136;2023-02-28T06:10:09;7.57;;;4.70;;
64199;SDS011;50516;52.272;5.136;2023-02-28T06:12:36;8.55;;;4.78;;
64199;SDS011;50516;52.272;5.136;2023-02-28T06:15:02;7.40;;;4.65;;
64199;SDS011;50516;52.272;5.136;2023-02-28T06:17:28;9.63;;;4.10;;
64199;SDS011;50516;52.272;5.136;2023-02-28T06:19:54;7.75;;;4.00;;
64199;SDS011;50516;52.272;5.136;2023-02-28T06:22:19;8.27;;;4.75;;
64199;SDS011;50516;52.272;5.136;2023-02-28T06:24:44;7.22;;;4.28;;
64199;SDS011;50516;52.272;5.136;2023-02-28T06:27:10;6.53;;;3.95;;
64199;SDS011;50516;52.272;5.136;2023-02-28T06:29:35;6.72;;;4.10;;
64199;SDS011;50516;52.272;5.136;2023-02-28T06:32:01;6.15;;;3.83;;
64199;SDS011;50516;52.272;5.136;2023-02-28T06:34:27;7.43;;;3.67;;
64199;SDS011;50516;52.272;5.136;2023-02-28T06:36:52;6.90;;;4.15;;
64199;SDS011;50516;52.272;5.136;2023-02-28T06:39:18;7.38;;;3.95;;
64199;SDS011;50516;52.272;5.136;2023-02-28T06:41:43;7.25;;;3.88;;
64199;SDS011;50516;52.272;5.136;2023-02-28T06:44:17;6.47;;;3.92;;
64199;SDS011;50516;52.272;5.136;2023-02-28T06:46:43;8.02;;;4.35;;
64199;SDS011;50516;52.272;5.136;2023-02-28T06:49:09;5.60;;;3.75;;
64199;SDS011;50516;52.272;5.136;2023-02-28T06:51:36;7.25;;;4.22;;
64199;SDS011;50516;52.272;5.136;2023-02-28T06:54:03;7.00;;;4.25;;
64199;SDS011;50516;52.272;5.136;2023-02-28T06:56:28;8.70;;;4.40;;
64199;SDS011;50516;52.272;5.136;2023-02-28T06:58:54;7.22;;;4.35;;
64199;SDS011;50516;52.272;5.136;2023-02-28T07:01:19;5.60;;;3.90;;
64199;SDS011;50516;52.272;5.136;2023-02-28T07:03:47;7.47;;;4.28;;
64199;SDS011;50516;52.272;5.136;2023-02-28T07:06:17;6.75;;;4.10;;
64199;SDS011;50516;52.272;5.136;2023-02-28T07:08:47;8.60;;;4.07;;
64199;SDS011;50516;52.272;5.136;2023-02-28T07:11:13;8.90;;;4.32;;
64199;SDS011;50516;52.272;5.136;2023-02-28T07:13:40;5.93;;;4.22;;
64199;SDS011;50516;52.272;5.136;2023-02-28T07:16:06;8.23;;;4.88;;
64199;SDS011;50516;52.272;5.136;2023-02-28T07:18:34;7.75;;;4.82;;
64199;SDS011;50516;52.272;5.136;2023-02-28T07:21:04;7.63;;;4.95;;
64199;SDS011;50516;52.272;5.136;2023-02-28T07:23:31;7.50;;;4.40;;
64199;SDS011;50516;52.272;5.136;2023-02-28T07:25:56;8.23;;;4.72;;
64199;SDS011;50516;52.272;5.136;2023-02-28T07:28:21;10.20;;;4.63;;
64199;SDS011;50516;52.272;5.136;2023-02-28T07:30:47;8.95;;;5.82;;
64199;SDS011;50516;52.272;5.136;2023-02-28T07:33:13;5.43;;;4.10;;
64199;SDS011;50516;52.272;5.136;2023-02-28T07:35:38;6.75;;;4.50;;
64199;SDS011;50516;52.272;5.136;2023-02-28T07:38:04;7.65;;;5.35;;
64199;SDS011;50516;52.272;5.136;2023-02-28T07:40:29;7.35;;;4.68;;
64199;SDS011;50516;52.272;5.136;2023-02-28T07:42:55;8.23;;;5.40;;
64199;SDS011;50516;52.272;5.136;2023-02-28T07:45:20;9.15;;;5.53;;
64199;SDS011;50516;52.272;5.136;2023-02-28T07:47:46;7.30;;;5.18;;
64199;SDS011;50516;52.272;5.136;2023-02-28T07:50:13;9.18;;;5.22;;
64199;SDS011;50516;52.272;5.136;2023-02-28T07:52:40;8.20;;;4.65;;
64199;SDS011;50516;52.272;5.136;2023-02-28T07:55:06;8.60;;;4.68;;
64199;SDS011;50516;52.272;5.136;2023-02-28T07:57:33;11.35;;;5.45;;
64199;SDS011;50516;52.272;5.136;2023-02-28T07:59:59;8.35;;;4.55;;
64199;SDS011;50516;52.272;5.136;2023-02-28T08:02:24;7.40;;;4.75;;
64199;SDS011;50516;52.272;5.136;2023-02-28T08:04:50;6.25;;;4.93;;
64199;SDS011;50516;52.272;5.136;2023-02-28T08:07:16;8.95;;;4.80;;
64199;SDS011;50516;52.272;5.136;2023-02-28T08:09:42;9.25;;;5.10;;
64199;SDS011;50516;52.272;5.136;2023-02-28T08:12:09;8.52;;;5.65;;
64199;SDS011;50516;52.272;5.136;2023-02-28T08:14:35;7.82;;;5.22;;
64199;SDS011;50516;52.272;5.136;2023-02-28T08:17:00;7.47;;;4.68;;
64199;SDS011;50516;52.272;5.136;2023-02-28T08:19:26;7.90;;;4.90;;
64199;SDS011;50516;52.272;5.136;2023-02-28T08:21:51;8.68;;;5.40;;
64199;SDS011;50516;52.272;5.136;2023-02-28T08:24:17;6.38;;;4.72;;
64199;SDS011;50516;52.272;5.136;2023-02-28T08:26:42;8.30;;;4.88;;
64199;SDS011;50516;52.272;5.136;2023-02-28T08:29:07;6.60;;;4.90;;
64199;SDS011;50516;52.272;5.136;2023-02-28T08:31:33;7.30;;;4.72;;
64199;SDS011;50516;52.272;5.136;2023-02-28T08:34:00;7.57;;;5.10;;
64199;SDS011;50516;52.272;5.136;2023-02-28T08:36:29;6.55;;;4.63;;
64199;SDS011;50516;52.272;5.136;2023-02-28T08:38:54;6.35;;;4.30;;
64199;SDS011;50516;52.272;5.136;2023-02-28T08:41:21;8.05;;;5.03;;
64199;SDS011;50516;52.272;5.136;2023-02-28T08:43:47;7.43;;;4.45;;
64199;SDS011;50516;52.272;5.136;2023-02-28T08:46:12;7.20;;;4.70;;
64199;SDS011;50516;52.272;5.136;2023-02-28T08:48:39;8.27;;;4.65;;
64199;SDS011;50516;52.272;5.136;2023-02-28T08:51:08;11.63;;;5.03;;
64199;SDS011;50516;52.272;5.136;2023-02-28T08:53:36;8.05;;;5.20;;
64199;SDS011;50516;52.272;5.136;2023-02-28T08:56:04;7.80;;;5.00;;
64199;SDS011;50516;52.272;5.136;2023-02-28T08:58:32;13.38;;;4.75;;
64199;SDS011;50516;52.272;5.136;2023-02-28T09:00:59;7.82;;;4.93;;
64199;SDS011;50516;52.272;5.136;2023-02-28T09:03:24;7.10;;;4.90;;
64199;SDS011;50516;52.272;5.136;2023-02-28T09:05:57;7.82;;;4.88;;
64199;SDS011;50516;52.272;5.136;2023-02-28T09:08:24;10.75;;;6.35;;
64199;SDS011;50516;52.272;5.136;2023-02-28T09:10:51;7.47;;;4.97;;
64199;SDS011;50516;52.272;5.136;2023-02-28T09:13:17;7.93;;;5.20;;
64199;SDS011;50516;52.272;5.136;2023-02-28T09:15:44;9.38;;;5.75;;
64199;SDS011;50516;52.272;5.136;2023-02-28T09:18:09;11.15;;;5.22;;
64199;SDS011;50516;52.272;5.136;2023-02-28T09:20:39;8.45;;;5.32;;
64199;SDS011;50516;52.272;5.136;2023-02-28T09:23:05;7.63;;;5.07;;
64199;SDS011;50516;52.272;5.136;2023-02-28T09:25:31;9.82;;;6.15;;
64199;SDS011;50516;52.272;5.136;2023-02-28T09:27:57;8.02;;;5.95;;
64199;SDS011;50516;52.272;5.136;2023-02-28T09:30:22;9.68;;;5.68;;
64199;SDS011;50516;52.272;5.136;2023-02-28T09:32:48;8.15;;;5.63;;
64199;SDS011;50516;52.272;5.136;2023-02-28T09:35:23;8.90;;;5.20;;
64199;SDS011;50516;52.272;5.136;2023-02-28T09:37:51;9.77;;;4.55;;
64199;SDS011;50516;52.272;5.136;2023-02-28T09:40:18;9.63;;;4.60;;
64199;SDS011;50516;52.272;5.136;2023-02-28T09:42:45;7.10;;;4.22;;
64199;SDS011;50516;52.272;5.136;2023-02-28T09:45:56;7.75;;;4.63;;
64199;SDS011;50516;52.272;5.136;2023-02-28T09:48:14;7.00;;;4.38;;
64199;SDS011;50516;52.272;5.136;2023-02-28T09:50:45;8.10;;;4.38;;
64199;SDS011;50516;52.272;5.136;2023-02-28T09:53:26;8.80;;;4.50;;
64199;SDS011;50516;52.272;5.136;2023-02-28T09:56:07;8.77;;;4.30;;
64199;SDS011;50516;52.272;5.136;2023-02-28T09:58:50;7.32;;;4.32;;
64199;SDS011;50516;52.272;5.136;2023-02-28T10:07:02;9.95;;;4.88;;
64199;SDS011;50516;52.272;5.136;2023-02-28T10:09:42;7.18;;;4.55;;
64199;SDS011;50516;52.272;5.136;2023-02-28T10:12:09;7.72;;;4.10;;
64199;SDS011;50516;52.272;5.136;2023-02-28T10:14:38;7.32;;;4.07;;
64199;SDS011;50516;52.272;5.136;2023-02-28T10:17:13;8.35;;;4.18;;
64199;SDS011;50516;52.272;5.136;2023-02-28T10:19:55;8.52;;;4.18;;
64199;SDS011;50516;52.272;5.136;2023-02-28T10:22:32;7.70;;;4.40;;
64199;SDS011;50516;52.272;5.136;2023-02-28T10:25:27;9.40;;;4.35;;
64199;SDS011;50516;52.272;5.136;2023-02-28T10:27:54;8.18;;;4.70;;
64199;SDS011;50516;52.272;5.136;2023-02-28T10:30:26;7.22;;;4.72;;
64199;SDS011;50516;52.272;5.136;2023-02-28T10:32:52;6.55;;;4.68;;
64199;SDS011;50516;52.272;5.136;2023-02-28T10:35:20;8.48;;;4.15;;
64199;SDS011;50516;52.272;5.136;2023-02-28T10:37:49;5.93;;;3.83;;
64199;SDS011;50516;52.272;5.136;2023-02-28T10:42:56;9.65;;;4.05;;
64199;SDS011;50516;52.272;5.136;2023-02-28T10:45:28;6.53;;;3.70;;
64199;SDS011;50516;52.272;5.136;2023-02-28T10:50:45;6.95;;;3.92;;
64199;SDS011;50516;52.272;5.136;2023-02-28T11:03:47;6.03;;;3.08;;
64199;SDS011;50516;52.272;5.136;2023-02-28T11:06:21;5.80;;;3.33;;
64199;SDS011;50516;52.272;5.136;2023-02-28T11:08:58;5.20;;;3.33;;
64199;SDS011;50516;52.272;5.136;2023-02-28T11:11:27;4.60;;;2.97;;
64199;SDS011;50516;52.272;5.136;2023-02-28T11:13:57;5.15;;;2.60;;
64199;SDS011;50516;52.272;5.136;2023-02-28T11:16:33;3.95;;;2.75;;
64199;SDS011;50516;52.272;5.136;2023-02-28T11:19:00;6.30;;;3.15;;
64199;SDS011;50516;52.272;5.136;2023-02-28T11:21:28;3.63;;;2.58;;
64199;SDS011;50516;52.272;5.136;2023-02-28T11:26:44;5.05;;;2.90;;
64199;SDS011;50516;52.272;5.136;2023-02-28T11:29:16;5.32;;;2.58;;
64199;SDS011;50516;52.272;5.136;2023-02-28T11:31:42;6.88;;;2.65;;
64199;SDS011;50516;52.272;5.136;2023-02-28T11:34:22;4.82;;;2.80;;
64199;SDS011;50516;52.272;5.136;2023-02-28T11:36:49;3.90;;;2.22;;
64199;SDS011;50516;52.272;5.136;2023-02-28T11:39:18;4.00;;;2.63;;
64199;SDS011;50516;52.272;5.136;2023-02-28T11:44:31;3.95;;;2.60;;
64199;SDS011;50516;52.272;5.136;2023-02-28T11:48:10;7.50;;;2.88;;
64199;SDS011;50516;52.272;5.136;2023-02-28T11:50:43;3.00;;;2.30;;
64199;SDS011;50516;52.272;5.136;2023-02-28T11:56:06;5.70;;;3.10;;
64199;SDS011;50516;52.272;5.136;2023-02-28T11:58:40;4.18;;;2.70;;
64199;SDS011;50516;52.272;5.136;2023-02-28T12:09:38;3.65;;;2.30;;
64199;SDS011;50516;52.272;5.136;2023-02-28T12:24:10;4.28;;;2.80;;
64199;SDS011;50516;52.272;5.136;2023-02-28T12:27:00;5.03;;;2.50;;
64199;SDS011;50516;52.272;5.136;2023-02-28T12:29:32;3.42;;;2.60;;
64199;SDS011;50516;52.272;5.136;2023-02-28T12:32:06;3.20;;;2.47;;
64199;SDS011;50516;52.272;5.136;2023-02-28T12:34:42;3.47;;;2.42;;
64199;SDS011;50516;52.272;5.136;2023-02-28T12:37:21;4.55;;;2.72;;
64199;SDS011;50516;52.272;5.136;2023-02-28T12:40:01;3.65;;;2.53;;
64199;SDS011;50516;52.272;5.136;2023-02-28T12:42:34;3.45;;;2.40;;
64199;SDS011;50516;52.272;5.136;2023-02-28T12:45:12;6.63;;;3.55;;
64199;SDS011;50516;52.272;5.136;2023-02-28T12:47:44;4.03;;;2.80;;
64199;SDS011;50516;52.272;5.136;2023-02-28T12:50:14;4.20;;;2.60;;
64199;SDS011;50516;52.272;5.136;2023-02-28T12:55:23;6.80;;;3.30;;
64199;SDS011;50516;52.272;5.136;2023-02-28T13:00:38;4.40;;;2.80;;
64199;SDS011;50516;52.272;5.136;2023-02-28T13:06:18;3.72;;;2.42;;
64199;SDS011;50516;52.272;5.136;2023-02-28T13:09:02;4.10;;;2.60;;
64199;SDS011;50516;52.272;5.136;2023-02-28T13:11:38;4.93;;;2.70;;
64199;SDS011;50516;52.272;5.136;2023-02-28T13:14:13;6.85;;;2.70;;
64199;SDS011;50516;52.272;5.136;2023-02-28T13:17:18;5.55;;;2.83;;
64199;SDS011;50516;52.272;5.136;2023-02-28T13:19:40;5.85;;;2.92;;
64199;SDS011;50516;52.272;5.136;2023-02-28T13:22:19;5.80;;;2.95;;
64199;SDS011;50516;52.272;5.136;2023-02-28T13:24:52;5.15;;;3.00;;
64199;SDS011;50516;52.272;5.136;2023-02-28T13:27:32;3.47;;;2.63;;
64199;SDS011;50516;52.272;5.136;2023-02-28T13:29:58;7.28;;;3.35;;
64199;SDS011;50516;52.272;5.136;2023-02-28T13:42:48;4.57;;;3.25;;
64199;SDS011;50516;52.272;5.136;2023-02-28T13:50:29;6.40;;;3.28;;
64199;SDS011;50516;52.272;5.136;2023-02-28T13:55:53;6.43;;;3.28;;
64199;SDS011;50516;52.272;5.136;2023-02-28T14:01:05;5.00;;;3.38;;
64199;SDS011;50516;52.272;5.136;2023-02-28T14:11:36;5.35;;;3.13;;
64199;SDS011;50516;52.272;5.136;2023-02-28T14:14:07;4.93;;;2.90;;
64199;SDS011;50516;52.272;5.136;2023-02-28T14:16:38;4.65;;;2.72;;
64199;SDS011;50516;52.272;5.136;2023-02-28T14:19:26;5.18;;;3.13;;
64199;SDS011;50516;52.272;5.136;2023-02-28T14:24:42;4.28;;;2.95;;
64199;SDS011;50516;52.272;5.136;2023-02-28T14:35:47;5.03;;;2.78;;
64199;SDS011;50516;52.272;5.136;2023-02-28T14:38:40;4.95;;;2.58;;
64199;SDS011;50516;52.272;5.136;2023-02-28T14:41:20;4.40;;;2.75;;
64199;SDS011;50516;52.272;5.136;2023-02-28T14:43:49;4.93;;;2.75;;
64199;SDS011;50516;52.272;5.136;2023-02-28T14:46:17;5.47;;;2.45;;
64199;SDS011;50516;52.272;5.136;2023-02-28T14:48:45;5.88;;;3.92;;
64199;SDS011;50516;52.272;5.136;2023-02-28T14:51:11;5.97;;;3.72;;
64199;SDS011;50516;52.272;5.136;2023-02-28T14:53:42;8.18;;;4.65;;
64199;SDS011;50516;52.272;5.136;2023-02-28T14:56:24;6.32;;;4.30;;
64199;SDS011;50516;52.272;5.136;2023-02-28T14:58:53;6.25;;;4.25;;
64199;SDS011;50516;52.272;5.136;2023-02-28T15:01:21;6.68;;;4.15;;
64199;SDS011;50516;52.272;5.136;2023-02-28T15:03:48;6.65;;;4.00;;
64199;SDS011;50516;52.272;5.136;2023-02-28T15:06:21;8.05;;;4.43;;
64199;SDS011;50516;52.272;5.136;2023-02-28T15:08:48;11.18;;;5.35;;
64199;SDS011;50516;52.272;5.136;2023-02-28T15:11:32;5.40;;;3.85;;
64199;SDS011;50516;52.272;5.136;2023-02-28T15:13:58;7.43;;;4.28;;
64199;SDS011;50516;52.272;5.136;2023-02-28T15:19:23;7.93;;;4.18;;
64199;SDS011;50516;52.272;5.136;2023-02-28T15:21:57;7.38;;;4.35;;
64199;SDS011;50516;52.272;5.136;2023-02-28T15:27:02;6.40;;;4.18;;
64199;SDS011;50516;52.272;5.136;2023-02-28T15:29:32;6.72;;;4.30;;
64199;SDS011;50516;52.272;5.136;2023-02-28T15:32:07;5.35;;;4.07;;
64199;SDS011;50516;52.272;5.136;2023-02-28T15:34:39;5.60;;;3.50;;
64199;SDS011;50516;52.272;5.136;2023-02-28T15:39:51;6.13;;;4.18;;
64199;SDS011;50516;52.272;5.136;2023-02-28T15:42:19;8.25;;;4.22;;
64199;SDS011;50516;52.272;5.136;2023-02-28T15:44:45;6.97;;;3.53;;
64199;SDS011;50516;52.272;5.136;2023-02-28T15:47:16;7.22;;;3.67;;
64199;SDS011;50516;52.272;5.136;2023-02-28T15:49:48;7.47;;;3.78;;
64199;SDS011;50516;52.272;5.136;2023-02-28T15:52:27;5.80;;;3.80;;
64199;SDS011;50516;52.272;5.136;2023-02-28T15:54:59;6.93;;;3.75;;
64199;SDS011;50516;52.272;5.136;2023-02-28T15:58:01;9.88;;;3.88;;
64199;SDS011;50516;52.272;5.136;2023-02-28T16:00:28;4.82;;;3.33;;
64199;SDS011;50516;52.272;5.136;2023-02-28T16:02:55;6.57;;;3.75;;
64199;SDS011;50516;52.272;5.136;2023-02-28T16:05:27;9.45;;;3.55;;
64199;SDS011;50516;52.272;5.136;2023-02-28T16:07:58;6.43;;;3.38;;
64199;SDS011;50516;52.272;5.136;2023-02-28T16:10:26;4.80;;;3.20;;
64199;SDS011;50516;52.272;5.136;2023-02-28T16:12:54;5.90;;;3.38;;
64199;SDS011;50516;52.272;5.136;2023-02-28T16:15:22;6.25;;;3.50;;
64199;SDS011;50516;52.272;5.136;2023-02-28T16:17:48;4.82;;;3.28;;
64199;SDS011;50516;52.272;5.136;2023-02-28T16:20:21;5.38;;;3.25;;
64199;SDS011;50516;52.272;5.136;2023-02-28T16:22:49;5.47;;;3.00;;
64199;SDS011;50516;52.272;5.136;2023-02-28T16:25:16;4.93;;;3.30;;
64199;SDS011;50516;52.272;5.136;2023-02-28T16:27:44;4.75;;;3.15;;
64199;SDS011;50516;52.272;5.136;2023-02-28T16:30:22;4.40;;;2.97;;
64199;SDS011;50516;52.272;5.136;2023-02-28T16:32:49;4.90;;;3.20;;
64199;SDS011;50516;52.272;5.136;2023-02-28T16:35:16;4.72;;;3.13;;
64199;SDS011;50516;52.272;5.136;2023-02-28T16:37:42;5.50;;;3.30;;
64199;SDS011;50516;52.272;5.136;2023-02-28T16:40:13;5.57;;;3.17;;
64199;SDS011;50516;52.272;5.136;2023-02-28T16:42:43;5.65;;;2.85;;
64199;SDS011;50516;52.272;5.136;2023-02-28T16:45:31;4.60;;;3.45;;
64199;SDS011;50516;52.272;5.136;2023-02-28T16:47:55;6.80;;;3.40;;
64199;SDS011;50516;52.272;5.136;2023-02-28T16:50:25;3.78;;;3.00;;
64199;SDS011;50516;52.272;5.136;2023-02-28T16:52:55;4.93;;;2.97;;
64199;SDS011;50516;52.272;5.136;2023-02-28T16:55:24;5.63;;;3.20;;
64199;SDS011;50516;52.272;5.136;2023-02-28T16:57:52;6.88;;;3.47;;
64199;SDS011;50516;52.272;5.136;2023-02-28T17:00:20;4.60;;;3.75;;
64199;SDS011;50516;52.272;5.136;2023-02-28T17:02:46;5.38;;;3.45;;
64199;SDS011;50516;52.272;5.136;2023-02-28T17:05:12;7.10;;;4.85;;
64199;SDS011;50516;52.272;5.136;2023-02-28T17:07:38;6.05;;;4.20;;
64199;SDS011;50516;52.272;5.136;2023-02-28T17:10:26;8.82;;;4.72;;
64199;SDS011;50516;52.272;5.136;2023-02-28T17:12:51;12.13;;;7.38;;
64199;SDS011;50516;52.272;5.136;2023-02-28T17:15:18;8.18;;;5.45;;
64199;SDS011;50516;52.272;5.136;2023-02-28T17:17:44;7.57;;;5.75;;